sensor_id;sensor_type;location;lat;lon;timestamp;P1;durP1;ratioP1;P2;durP2;ratioP2
46110;SDS011;31849;55.992;37.252;2023-01-16T00:04:53;23.67;;;10.07;;
46110;SDS011;31849;55.992;37.252;2023-01-16T00:09:56;18.63;;;10.52;;
46110;SDS011;31849;55.992;37.252;2023-01-16T00:15:00;21.90;;;8.85;;
46110;SDS011;31849;55.992;37.252;2023-01-16T00:20:06;21.13;;;9.43;;
46110;SDS011;31849;55.992;37.252;2023-01-16T00:25:11;19.70;;;9.67;;
46110;SDS011;31849;55.992;37.252;2023-01-16T00:30:14;14.98;;;7.72;;
46110;SDS011;31849;55.992;37.252;2023-01-16T00:35:19;26.10;;;10.13;;
46110;SDS011;31849;55.992;37.252;2023-01-16T00:45:27;16.73;;;8.00;;
46110;SDS011;31849;55.992;37.252;2023-01-16T00:50:32;21.80;;;10.43;;
46110;SDS011;31849;55.992;37.252;2023-01-16T00:55:36;21.40;;;9.52;;
46110;SDS011;31849;55.992;37.252;2023-01-16T01:00:39;23.67;;;10.37;;
46110;SDS011;31849;55.992;37.252;2023-01-16T01:05:44;20.95;;;8.55;;
46110;SDS011;31849;55.992;37.252;2023-01-16T01:10:49;23.90;;;8.45;;
46110;SDS011;31849;55.992;37.252;2023-01-16T01:15:53;22.70;;;9.80;;
46110;SDS011;31849;55.992;37.252;2023-01-16T01:20:58;19.27;;;8.47;;
46110;SDS011;31849;55.992;37.252;2023-01-16T01:26:05;19.93;;;7.67;;
46110;SDS011;31849;55.992;37.252;2023-01-16T01:31:10;24.98;;;9.32;;
46110;SDS011;31849;55.992;37.252;2023-01-16T01:36:16;18.23;;;7.75;;
46110;SDS011;31849;55.992;37.252;2023-01-16T01:41:20;27.20;;;10.53;;
46110;SDS011;31849;55.992;37.252;2023-01-16T01:46:25;20.87;;;8.73;;
46110;SDS011;31849;55.992;37.252;2023-01-16T01:51:34;24.50;;;10.00;;
46110;SDS011;31849;55.992;37.252;2023-01-16T01:56:45;21.60;;;8.97;;
46110;SDS011;31849;55.992;37.252;2023-01-16T02:01:52;19.40;;;9.13;;
46110;SDS011;31849;55.992;37.252;2023-01-16T02:12:06;20.43;;;9.47;;
46110;SDS011;31849;55.992;37.252;2023-01-16T02:17:12;25.80;;;9.77;;
46110;SDS011;31849;55.992;37.252;2023-01-16T02:28:26;19.03;;;8.43;;
46110;SDS011;31849;55.992;37.252;2023-01-16T02:34:01;16.27;;;7.13;;
46110;SDS011;31849;55.992;37.252;2023-01-16T02:39:18;25.13;;;8.83;;
46110;SDS011;31849;55.992;37.252;2023-01-16T02:44:33;21.77;;;8.70;;
46110;SDS011;31849;55.992;37.252;2023-01-16T02:49:46;14.90;;;7.73;;
46110;SDS011;31849;55.992;37.252;2023-01-16T02:54:56;17.07;;;7.87;;
46110;SDS011;31849;55.992;37.252;2023-01-16T03:00:06;21.00;;;9.17;;
46110;SDS011;31849;55.992;37.252;2023-01-16T03:05:13;21.30;;;9.00;;
46110;SDS011;31849;55.992;37.252;2023-01-16T03:15:34;23.07;;;9.50;;
46110;SDS011;31849;55.992;37.252;2023-01-16T03:20:50;43.60;;;9.57;;
46110;SDS011;31849;55.992;37.252;2023-01-16T03:26:01;27.73;;;10.43;;
46110;SDS011;31849;55.992;37.252;2023-01-16T03:31:10;21.17;;;8.10;;
46110;SDS011;31849;55.992;37.252;2023-01-16T03:36:19;25.80;;;9.00;;
46110;SDS011;31849;55.992;37.252;2023-01-16T03:41:27;19.73;;;8.07;;
46110;SDS011;31849;55.992;37.252;2023-01-16T03:46:35;23.97;;;8.63;;
46110;SDS011;31849;55.992;37.252;2023-01-16T03:51:47;25.00;;;9.07;;
46110;SDS011;31849;55.992;37.252;2023-01-16T03:56:56;19.70;;;8.70;;
46110;SDS011;31849;55.992;37.252;2023-01-16T04:02:03;22.37;;;8.70;;
46110;SDS011;31849;55.992;37.252;2023-01-16T04:07:17;22.93;;;9.47;;
46110;SDS011;31849;55.992;37.252;2023-01-16T04:12:25;25.33;;;10.33;;
46110;SDS011;31849;55.992;37.252;2023-01-16T04:17:33;24.10;;;8.93;;
46110;SDS011;31849;55.992;37.252;2023-01-16T04:22:40;22.20;;;8.80;;
46110;SDS011;31849;55.992;37.252;2023-01-16T04:27:43;28.60;;;11.07;;
46110;SDS011;31849;55.992;37.252;2023-01-16T04:32:47;28.27;;;9.63;;
46110;SDS011;31849;55.992;37.252;2023-01-16T04:37:51;30.70;;;9.40;;
46110;SDS011;31849;55.992;37.252;2023-01-16T04:42:55;20.83;;;8.20;;
46110;SDS011;31849;55.992;37.252;2023-01-16T04:47:58;26.17;;;10.97;;
46110;SDS011;31849;55.992;37.252;2023-01-16T04:53:03;23.42;;;9.02;;
46110;SDS011;31849;55.992;37.252;2023-01-16T04:58:07;26.90;;;10.17;;
46110;SDS011;31849;55.992;37.252;2023-01-16T05:03:10;25.07;;;9.23;;
46110;SDS011;31849;55.992;37.252;2023-01-16T05:08:15;27.70;;;9.77;;
46110;SDS011;31849;55.992;37.252;2023-01-16T05:13:19;28.90;;;10.23;;
46110;SDS011;31849;55.992;37.252;2023-01-16T05:18:23;30.43;;;9.90;;
46110;SDS011;31849;55.992;37.252;2023-01-16T05:23:28;28.07;;;10.00;;
46110;SDS011;31849;55.992;37.252;2023-01-16T05:28:32;26.58;;;10.73;;
46110;SDS011;31849;55.992;37.252;2023-01-16T05:33:37;25.80;;;10.02;;
46110;SDS011;31849;55.992;37.252;2023-01-16T05:38:41;27.00;;;9.93;;
46110;SDS011;31849;55.992;37.252;2023-01-16T05:43:45;25.47;;;9.77;;
46110;SDS011;31849;55.992;37.252;2023-01-16T05:48:49;22.47;;;10.40;;
46110;SDS011;31849;55.992;37.252;2023-01-16T05:53:54;24.73;;;9.07;;
46110;SDS011;31849;55.992;37.252;2023-01-16T05:58:57;27.67;;;9.60;;
46110;SDS011;31849;55.992;37.252;2023-01-16T06:04:01;26.73;;;10.15;;
46110;SDS011;31849;55.992;37.252;2023-01-16T06:09:06;19.67;;;7.43;;
46110;SDS011;31849;55.992;37.252;2023-01-16T06:14:10;27.67;;;10.50;;
46110;SDS011;31849;55.992;37.252;2023-01-16T06:19:13;28.42;;;10.52;;
46110;SDS011;31849;55.992;37.252;2023-01-16T06:24:18;31.58;;;11.38;;
46110;SDS011;31849;55.992;37.252;2023-01-16T06:29:22;17.97;;;8.57;;
46110;SDS011;31849;55.992;37.252;2023-01-16T06:34:25;30.07;;;10.50;;
46110;SDS011;31849;55.992;37.252;2023-01-16T06:39:30;33.90;;;11.33;;
46110;SDS011;31849;55.992;37.252;2023-01-16T06:44:34;30.63;;;11.47;;
46110;SDS011;31849;55.992;37.252;2023-01-16T06:49:37;27.50;;;9.67;;
46110;SDS011;31849;55.992;37.252;2023-01-16T06:54:42;21.87;;;9.53;;
46110;SDS011;31849;55.992;37.252;2023-01-16T06:59:46;25.17;;;10.10;;
46110;SDS011;31849;55.992;37.252;2023-01-16T07:04:52;28.10;;;11.13;;
46110;SDS011;31849;55.992;37.252;2023-01-16T07:09:56;25.47;;;9.20;;
46110;SDS011;31849;55.992;37.252;2023-01-16T07:15:03;14.93;;;5.38;;
46110;SDS011;31849;55.992;37.252;2023-01-16T07:20:25;25.58;;;11.18;;
46110;SDS011;31849;55.992;37.252;2023-01-16T07:25:47;27.00;;;10.82;;
46110;SDS011;31849;55.992;37.252;2023-01-16T07:30:53;28.03;;;10.23;;
46110;SDS011;31849;55.992;37.252;2023-01-16T07:35:59;31.90;;;10.30;;
46110;SDS011;31849;55.992;37.252;2023-01-16T07:41:04;25.63;;;9.80;;
46110;SDS011;31849;55.992;37.252;2023-01-16T07:46:07;27.20;;;10.17;;
46110;SDS011;31849;55.992;37.252;2023-01-16T07:51:11;19.30;;;8.27;;
46110;SDS011;31849;55.992;37.252;2023-01-16T07:56:16;26.30;;;9.90;;
46110;SDS011;31849;55.992;37.252;2023-01-16T08:01:22;20.33;;;8.47;;
46110;SDS011;31849;55.992;37.252;2023-01-16T08:06:26;20.10;;;8.60;;
46110;SDS011;31849;55.992;37.252;2023-01-16T08:11:31;27.97;;;9.47;;
46110;SDS011;31849;55.992;37.252;2023-01-16T08:16:41;26.63;;;11.37;;
46110;SDS011;31849;55.992;37.252;2023-01-16T08:21:45;25.90;;;10.00;;
46110;SDS011;31849;55.992;37.252;2023-01-16T08:26:50;26.63;;;9.20;;
46110;SDS011;31849;55.992;37.252;2023-01-16T08:31:53;20.53;;;8.23;;
46110;SDS011;31849;55.992;37.252;2023-01-16T08:36:57;18.13;;;7.60;;
46110;SDS011;31849;55.992;37.252;2023-01-16T08:42:02;19.57;;;7.90;;
46110;SDS011;31849;55.992;37.252;2023-01-16T08:47:23;22.95;;;8.48;;
46110;SDS011;31849;55.992;37.252;2023-01-16T08:52:45;29.03;;;10.53;;
46110;SDS011;31849;55.992;37.252;2023-01-16T08:57:50;23.33;;;7.37;;
46110;SDS011;31849;55.992;37.252;2023-01-16T09:02:54;16.07;;;6.40;;
46110;SDS011;31849;55.992;37.252;2023-01-16T09:08:00;27.03;;;6.93;;
46110;SDS011;31849;55.992;37.252;2023-01-16T09:13:05;17.93;;;7.90;;
46110;SDS011;31849;55.992;37.252;2023-01-16T09:18:29;21.07;;;8.10;;
46110;SDS011;31849;55.992;37.252;2023-01-16T09:23:32;19.33;;;7.43;;
46110;SDS011;31849;55.992;37.252;2023-01-16T09:28:37;31.43;;;10.60;;
46110;SDS011;31849;55.992;37.252;2023-01-16T09:33:41;23.23;;;8.50;;
46110;SDS011;31849;55.992;37.252;2023-01-16T09:38:44;13.80;;;5.33;;
46110;SDS011;31849;55.992;37.252;2023-01-16T09:43:49;20.90;;;6.33;;
46110;SDS011;31849;55.992;37.252;2023-01-16T09:48:54;13.03;;;5.57;;
46110;SDS011;31849;55.992;37.252;2023-01-16T09:54:01;11.67;;;5.03;;
46110;SDS011;31849;55.992;37.252;2023-01-16T09:59:31;19.07;;;7.43;;
46110;SDS011;31849;55.992;37.252;2023-01-16T10:04:38;19.87;;;6.93;;
46110;SDS011;31849;55.992;37.252;2023-01-16T10:09:43;17.77;;;5.63;;
46110;SDS011;31849;55.992;37.252;2023-01-16T10:15:00;15.87;;;5.63;;
46110;SDS011;31849;55.992;37.252;2023-01-16T10:20:32;17.05;;;6.82;;
46110;SDS011;31849;55.992;37.252;2023-01-16T10:25:49;15.77;;;6.90;;
46110;SDS011;31849;55.992;37.252;2023-01-16T10:31:04;17.77;;;7.30;;
46110;SDS011;31849;55.992;37.252;2023-01-16T10:36:14;15.57;;;6.87;;
46110;SDS011;31849;55.992;37.252;2023-01-16T10:41:21;17.92;;;6.88;;
46110;SDS011;31849;55.992;37.252;2023-01-16T10:46:47;16.02;;;6.55;;
46110;SDS011;31849;55.992;37.252;2023-01-16T10:52:10;16.98;;;7.25;;
46110;SDS011;31849;55.992;37.252;2023-01-16T10:57:14;15.38;;;7.10;;
46110;SDS011;31849;55.992;37.252;2023-01-16T11:02:23;17.10;;;7.07;;
46110;SDS011;31849;55.992;37.252;2023-01-16T11:07:31;17.40;;;7.07;;
46110;SDS011;31849;55.992;37.252;2023-01-16T11:12:36;12.88;;;6.20;;
46110;SDS011;31849;55.992;37.252;2023-01-16T11:17:59;15.88;;;7.05;;
46110;SDS011;31849;55.992;37.252;2023-01-16T11:23:20;19.02;;;6.90;;
46110;SDS011;31849;55.992;37.252;2023-01-16T11:28:26;14.50;;;6.40;;
46110;SDS011;31849;55.992;37.252;2023-01-16T11:33:34;16.70;;;7.97;;
46110;SDS011;31849;55.992;37.252;2023-01-16T11:38:42;15.37;;;6.73;;
46110;SDS011;31849;55.992;37.252;2023-01-16T11:43:48;20.40;;;7.57;;
46110;SDS011;31849;55.992;37.252;2023-01-16T11:49:32;12.07;;;5.83;;
46110;SDS011;31849;55.992;37.252;2023-01-16T11:54:38;15.37;;;7.73;;
46110;SDS011;31849;55.992;37.252;2023-01-16T11:59:45;17.30;;;8.50;;
46110;SDS011;31849;55.992;37.252;2023-01-16T12:05:08;14.02;;;7.25;;
46110;SDS011;31849;55.992;37.252;2023-01-16T12:10:37;11.05;;;5.53;;
46110;SDS011;31849;55.992;37.252;2023-01-16T12:15:51;11.27;;;5.15;;
46110;SDS011;31849;55.992;37.252;2023-01-16T12:21:12;9.35;;;4.85;;
46110;SDS011;31849;55.992;37.252;2023-01-16T12:26:28;12.82;;;7.28;;
46110;SDS011;31849;55.992;37.252;2023-01-16T12:31:42;15.52;;;7.28;;
46110;SDS011;31849;55.992;37.252;2023-01-16T12:37:02;15.55;;;7.03;;
46110;SDS011;31849;55.992;37.252;2023-01-16T12:42:18;18.93;;;9.50;;
46110;SDS011;31849;55.992;37.252;2023-01-16T12:47:52;18.55;;;9.15;;
46110;SDS011;31849;55.992;37.252;2023-01-16T12:53:13;17.60;;;7.20;;
46110;SDS011;31849;55.992;37.252;2023-01-16T12:58:26;16.23;;;7.35;;
46110;SDS011;31849;55.992;37.252;2023-01-16T13:03:33;17.57;;;7.43;;
46110;SDS011;31849;55.992;37.252;2023-01-16T13:08:44;11.80;;;5.03;;
46110;SDS011;31849;55.992;37.252;2023-01-16T13:14:01;12.77;;;6.80;;
46110;SDS011;31849;55.992;37.252;2023-01-16T13:19:10;22.83;;;9.45;;
46110;SDS011;31849;55.992;37.252;2023-01-16T13:24:18;16.67;;;8.30;;
46110;SDS011;31849;55.992;37.252;2023-01-16T13:29:28;15.38;;;7.03;;
46110;SDS011;31849;55.992;37.252;2023-01-16T13:34:36;14.27;;;7.30;;
46110;SDS011;31849;55.992;37.252;2023-01-16T13:40:01;10.93;;;6.67;;
46110;SDS011;31849;55.992;37.252;2023-01-16T13:45:22;14.40;;;7.85;;
46110;SDS011;31849;55.992;37.252;2023-01-16T13:50:52;11.80;;;7.10;;
46110;SDS011;31849;55.992;37.252;2023-01-16T13:56:06;13.80;;;7.03;;
46110;SDS011;31849;55.992;37.252;2023-01-16T14:01:34;18.30;;;9.70;;
46110;SDS011;31849;55.992;37.252;2023-01-16T14:06:44;19.95;;;9.32;;
46110;SDS011;31849;55.992;37.252;2023-01-16T14:12:00;16.42;;;8.75;;
46110;SDS011;31849;55.992;37.252;2023-01-16T14:17:04;19.73;;;9.73;;
46110;SDS011;31849;55.992;37.252;2023-01-16T14:22:12;16.45;;;8.38;;
46110;SDS011;31849;55.992;37.252;2023-01-16T14:27:39;14.50;;;8.35;;
46110;SDS011;31849;55.992;37.252;2023-01-16T14:32:45;13.27;;;6.20;;
46110;SDS011;31849;55.992;37.252;2023-01-16T14:37:55;18.67;;;8.05;;
46110;SDS011;31849;55.992;37.252;2023-01-16T14:43:03;20.13;;;9.75;;
46110;SDS011;31849;55.992;37.252;2023-01-16T14:48:34;17.80;;;8.63;;
46110;SDS011;31849;55.992;37.252;2023-01-16T14:53:57;23.48;;;10.23;;
46110;SDS011;31849;55.992;37.252;2023-01-16T14:59:25;20.38;;;9.60;;
46110;SDS011;31849;55.992;37.252;2023-01-16T15:04:37;19.53;;;10.50;;
46110;SDS011;31849;55.992;37.252;2023-01-16T15:09:47;16.98;;;9.45;;
46110;SDS011;31849;55.992;37.252;2023-01-16T15:14:55;19.20;;;9.18;;
46110;SDS011;31849;55.992;37.252;2023-01-16T15:31:22;15.10;;;8.40;;
46110;SDS011;31849;55.992;37.252;2023-01-16T15:36:32;21.13;;;10.50;;
46110;SDS011;31849;55.992;37.252;2023-01-16T15:41:39;18.60;;;8.23;;
46110;SDS011;31849;55.992;37.252;2023-01-16T15:47:14;24.87;;;11.17;;
46110;SDS011;31849;55.992;37.252;2023-01-16T15:52:31;22.63;;;10.90;;
46110;SDS011;31849;55.992;37.252;2023-01-16T15:57:42;15.53;;;8.50;;
46110;SDS011;31849;55.992;37.252;2023-01-16T16:02:49;21.50;;;9.47;;
46110;SDS011;31849;55.992;37.252;2023-01-16T16:07:53;22.42;;;11.13;;
46110;SDS011;31849;55.992;37.252;2023-01-16T16:12:57;23.95;;;9.90;;
46110;SDS011;31849;55.992;37.252;2023-01-16T16:18:07;26.40;;;12.27;;
46110;SDS011;31849;55.992;37.252;2023-01-16T16:23:17;23.92;;;12.05;;
46110;SDS011;31849;55.992;37.252;2023-01-16T16:28:22;28.33;;;12.50;;
46110;SDS011;31849;55.992;37.252;2023-01-16T16:33:30;25.23;;;11.98;;
46110;SDS011;31849;55.992;37.252;2023-01-16T16:38:40;23.98;;;12.63;;
46110;SDS011;31849;55.992;37.252;2023-01-16T16:43:46;27.17;;;12.03;;
46110;SDS011;31849;55.992;37.252;2023-01-16T16:48:54;22.55;;;11.40;;
46110;SDS011;31849;55.992;37.252;2023-01-16T16:53:58;24.30;;;10.98;;
46110;SDS011;31849;55.992;37.252;2023-01-16T16:59:11;22.23;;;9.75;;
46110;SDS011;31849;55.992;37.252;2023-01-16T17:04:20;21.02;;;10.77;;
46110;SDS011;31849;55.992;37.252;2023-01-16T17:09:24;27.45;;;12.15;;
46110;SDS011;31849;55.992;37.252;2023-01-16T17:14:32;18.85;;;8.48;;
46110;SDS011;31849;55.992;37.252;2023-01-16T17:19:37;31.30;;;13.07;;
46110;SDS011;31849;55.992;37.252;2023-01-16T17:24:41;31.48;;;14.15;;
46110;SDS011;31849;55.992;37.252;2023-01-16T17:29:44;27.38;;;11.60;;
46110;SDS011;31849;55.992;37.252;2023-01-16T17:34:52;21.77;;;10.73;;
46110;SDS011;31849;55.992;37.252;2023-01-16T17:39:55;26.25;;;12.02;;
46110;SDS011;31849;55.992;37.252;2023-01-16T17:45:20;22.75;;;11.07;;
46110;SDS011;31849;55.992;37.252;2023-01-16T17:50:48;25.42;;;11.18;;
46110;SDS011;31849;55.992;37.252;2023-01-16T17:55:52;24.63;;;12.50;;
46110;SDS011;31849;55.992;37.252;2023-01-16T18:00:58;30.80;;;12.88;;
46110;SDS011;31849;55.992;37.252;2023-01-16T18:06:05;30.95;;;12.20;;
46110;SDS011;31849;55.992;37.252;2023-01-16T18:11:10;29.88;;;10.55;;
46110;SDS011;31849;55.992;37.252;2023-01-16T18:16:31;24.33;;;11.82;;
46110;SDS011;31849;55.992;37.252;2023-01-16T18:21:53;28.30;;;13.00;;
46110;SDS011;31849;55.992;37.252;2023-01-16T18:27:03;28.70;;;13.00;;
46110;SDS011;31849;55.992;37.252;2023-01-16T18:32:08;26.60;;;10.97;;
46110;SDS011;31849;55.992;37.252;2023-01-16T18:37:29;24.77;;;12.48;;
46110;SDS011;31849;55.992;37.252;2023-01-16T18:42:34;26.95;;;10.88;;
46110;SDS011;31849;55.992;37.252;2023-01-16T18:47:55;26.93;;;12.60;;
46110;SDS011;31849;55.992;37.252;2023-01-16T18:53:19;30.15;;;12.63;;
46110;SDS011;31849;55.992;37.252;2023-01-16T18:58:43;23.55;;;12.40;;
46110;SDS011;31849;55.992;37.252;2023-01-16T19:04:04;30.35;;;12.60;;
46110;SDS011;31849;55.992;37.252;2023-01-16T19:09:09;31.03;;;13.23;;
46110;SDS011;31849;55.992;37.252;2023-01-16T19:14:13;29.45;;;11.95;;
46110;SDS011;31849;55.992;37.252;2023-01-16T19:19:18;27.75;;;10.20;;
46110;SDS011;31849;55.992;37.252;2023-01-16T19:24:23;26.33;;;12.52;;
46110;SDS011;31849;55.992;37.252;2023-01-16T19:29:29;30.45;;;12.50;;
46110;SDS011;31849;55.992;37.252;2023-01-16T19:34:32;26.98;;;12.85;;
46110;SDS011;31849;55.992;37.252;2023-01-16T19:39:39;22.57;;;10.87;;
46110;SDS011;31849;55.992;37.252;2023-01-16T19:44:43;28.90;;;11.93;;
46110;SDS011;31849;55.992;37.252;2023-01-16T19:50:04;25.77;;;12.55;;
46110;SDS011;31849;55.992;37.252;2023-01-16T19:55:10;22.08;;;11.82;;
46110;SDS011;31849;55.992;37.252;2023-01-16T20:00:14;26.92;;;13.13;;
46110;SDS011;31849;55.992;37.252;2023-01-16T20:05:17;28.90;;;12.23;;
46110;SDS011;31849;55.992;37.252;2023-01-16T20:10:22;31.45;;;12.70;;
46110;SDS011;31849;55.992;37.252;2023-01-16T20:20:29;26.73;;;13.10;;
46110;SDS011;31849;55.992;37.252;2023-01-16T20:25:33;29.30;;;12.38;;
46110;SDS011;31849;55.992;37.252;2023-01-16T20:30:39;28.67;;;13.25;;
46110;SDS011;31849;55.992;37.252;2023-01-16T20:35:57;31.40;;;14.40;;
46110;SDS011;31849;55.992;37.252;2023-01-16T20:41:06;24.13;;;12.00;;
46110;SDS011;31849;55.992;37.252;2023-01-16T20:46:11;23.30;;;10.50;;
46110;SDS011;31849;55.992;37.252;2023-01-16T20:51:15;30.35;;;12.77;;
46110;SDS011;31849;55.992;37.252;2023-01-16T20:56:20;23.33;;;11.77;;
46110;SDS011;31849;55.992;37.252;2023-01-16T21:06:27;24.33;;;12.82;;
46110;SDS011;31849;55.992;37.252;2023-01-16T21:11:31;24.58;;;13.13;;
46110;SDS011;31849;55.992;37.252;2023-01-16T21:16:51;23.70;;;11.90;;
46110;SDS011;31849;55.992;37.252;2023-01-16T21:22:13;27.13;;;12.68;;
46110;SDS011;31849;55.992;37.252;2023-01-16T21:27:19;28.42;;;14.52;;
46110;SDS011;31849;55.992;37.252;2023-01-16T21:32:26;24.67;;;10.90;;
46110;SDS011;31849;55.992;37.252;2023-01-16T21:37:31;29.17;;;13.30;;
46110;SDS011;31849;55.992;37.252;2023-01-16T21:42:36;27.15;;;13.80;;
46110;SDS011;31849;55.992;37.252;2023-01-16T21:47:56;27.13;;;13.80;;
46110;SDS011;31849;55.992;37.252;2023-01-16T21:53:02;30.15;;;15.32;;
46110;SDS011;31849;55.992;37.252;2023-01-16T21:58:07;31.35;;;13.45;;
46110;SDS011;31849;55.992;37.252;2023-01-16T22:03:10;28.35;;;12.40;;
46110;SDS011;31849;55.992;37.252;2023-01-16T22:08:32;27.90;;;14.55;;
46110;SDS011;31849;55.992;37.252;2023-01-16T22:13:37;28.60;;;13.38;;
46110;SDS011;31849;55.992;37.252;2023-01-16T22:18:58;29.52;;;14.85;;
46110;SDS011;31849;55.992;37.252;2023-01-16T22:24:05;27.52;;;12.85;;
46110;SDS011;31849;55.992;37.252;2023-01-16T22:29:10;25.27;;;14.20;;
46110;SDS011;31849;55.992;37.252;2023-01-16T22:34:13;28.38;;;14.60;;
46110;SDS011;31849;55.992;37.252;2023-01-16T22:39:17;28.10;;;13.77;;
46110;SDS011;31849;55.992;37.252;2023-01-16T22:44:22;26.88;;;14.43;;
46110;SDS011;31849;55.992;37.252;2023-01-16T22:49:42;24.85;;;14.15;;
46110;SDS011;31849;55.992;37.252;2023-01-16T22:54:47;29.17;;;14.93;;
46110;SDS011;31849;55.992;37.252;2023-01-16T22:59:52;20.83;;;11.70;;
46110;SDS011;31849;55.992;37.252;2023-01-16T23:04:56;25.80;;;14.27;;
46110;SDS011;31849;55.992;37.252;2023-01-16T23:09:59;24.27;;;12.13;;
46110;SDS011;31849;55.992;37.252;2023-01-16T23:15:05;24.93;;;12.67;;
46110;SDS011;31849;55.992;37.252;2023-01-16T23:20:11;21.17;;;12.00;;
46110;SDS011;31849;55.992;37.252;2023-01-16T23:25:15;27.05;;;13.43;;
46110;SDS011;31849;55.992;37.252;2023-01-16T23:30:19;26.38;;;14.52;;
46110;SDS011;31849;55.992;37.252;2023-01-16T23:35:23;26.77;;;13.65;;
46110;SDS011;31849;55.992;37.252;2023-01-16T23:40:26;20.33;;;12.15;;
46110;SDS011;31849;55.992;37.252;2023-01-16T23:45:31;22.50;;;12.93;;
46110;SDS011;31849;55.992;37.252;2023-01-16T23:50:35;21.38;;;12.85;;
46110;SDS011;31849;55.992;37.252;2023-01-16T23:55:38;18.88;;;11.43;;
